Time,TemperatureF,DewpointF,PressureIn,WindDirection,WindDirectionDegrees,WindSpeedMPH,WindSpeedGustMPH,Humidity,HourlyPrecipIn,Conditions,Clouds,dailyrainin,SolarRadiationWatts/m^2,SoftwareType,DateUTC
2013-04-17 00:04:00,74.8,53.8,30.08,SE,139,14.0,0.0,48,0.00,,,0.00,0,WeatherHawk,2013-04-17 05:04:00,
2013-04-17 00:09:00,79.5,50.9,30.04,SE,128,9.0,0.0,37,0.00,,,0.00,1,WeatherHawk,2013-04-17 05:09:00,
2013-04-17 00:14:00,79.5,50.9,30.04,SE,128,9.0,0.0,37,0.00,,,0.00,1,WeatherHawk,2013-04-17 05:14:00,
2013-04-17 00:19:00,79.5,50.9,30.04,SE,128,9.0,0.0,37,0.00,,,0.00,1,WeatherHawk,2013-04-17 05:19:00,
2013-04-17 00:24:00,74.9,54.4,30.08,SSE,150,13.0,0.0,49,0.00,,,0.00,0,WeatherHawk,2013-04-17 05:24:00,
2013-04-17 00:29:00,79.5,50.9,30.04,SE,128,9.0,0.0,37,0.00,,,0.00,1,WeatherHawk,2013-04-17 05:29:00,
2013-04-17 00:34:00,79.5,50.9,30.04,SE,128,9.0,0.0,37,0.00,,,0.00,1,WeatherHawk,2013-04-17 05:34:00,
2013-04-17 00:39:00,79.5,50.9,30.04,SE,128,9.0,0.0,37,0.00,,,0.00,1,WeatherHawk,2013-04-17 05:39:00,
2013-04-17 00:44:00,79.5,50.9,30.04,SE,128,9.0,0.0,37,0.00,,,0.00,1,WeatherHawk,2013-04-17 05:44:00,
2013-04-17 00:49:00,79.5,50.9,30.04,SE,128,9.0,0.0,37,0.00,,,0.00,1,WeatherHawk,2013-04-17 05:49:00,
2013-04-17 00:54:00,79.5,50.9,30.04,SE,128,9.0,0.0,37,0.00,,,0.00,1,WeatherHawk,2013-04-17 05:54:00,
2013-04-17 00:59:00,79.5,50.9,30.04,SE,128,9.0,0.0,37,0.00,,,0.00,1,WeatherHawk,2013-04-17 05:59:00,
2013-04-17 01:04:00,79.5,50.9,30.04,SE,128,9.0,0.0,37,0.00,,,0.00,1,WeatherHawk,2013-04-17 06:04:00,
2013-04-17 01:09:00,79.5,50.9,30.04,SE,128,9.0,0.0,37,0.00,,,0.00,1,WeatherHawk,2013-04-17 06:09:00,
2013-04-17 01:14:00,79.5,50.9,30.04,SE,128,9.0,0.0,37,0.00,,,0.00,1,WeatherHawk,2013-04-17 06:14:00,
2013-04-17 01:19:00,79.5,50.9,30.04,SE,128,9.0,0.0,37,0.00,,,0.00,1,WeatherHawk,2013-04-17 06:19:00,
2013-04-17 01:24:00,79.5,50.9,30.04,SE,128,9.0,0.0,37,0.00,,,0.00,1,WeatherHawk,2013-04-17 06:24:00,
2013-04-17 01:29:00,79.5,50.9,30.04,SE,128,9.0,0.0,37,0.00,,,0.00,1,WeatherHawk,2013-04-17 06:29:00,
2013-04-17 01:34:00,73.6,56.4,30.09,SE,140,6.0,-999.0,55,0.00,,,0.00,0,WeatherHawk,2013-04-17 06:34:00,
2013-04-17 01:39:00,73.6,56.9,30.09,SSE,153,7.0,0.0,56,0.00,,,0.00,1,WeatherHawk,2013-04-17 06:39:00,
2013-04-17 01:44:00,73.7,56.0,30.10,SE,124,6.0,-999.0,54,0.00,,,0.00,0,WeatherHawk,2013-04-17 06:44:00,
2013-04-17 01:49:00,73.6,56.4,30.08,SSE,154,6.0,0.0,55,0.00,,,0.00,0,WeatherHawk,2013-04-17 06:49:00,
2013-04-17 01:54:00,79.5,50.9,30.04,SE,128,9.0,0.0,37,0.00,,,0.00,1,WeatherHawk,2013-04-17 06:54:00,
2013-04-17 01:59:00,79.5,50.9,30.04,SE,128,9.0,0.0,37,0.00,,,0.00,1,WeatherHawk,2013-04-17 06:59:00,
2013-04-17 02:04:00,79.5,50.9,30.04,SE,128,9.0,0.0,37,0.00,,,0.00,1,WeatherHawk,2013-04-17 07:04:00,
2013-04-17 02:09:00,79.5,50.9,30.04,SE,128,9.0,0.0,37,0.00,,,0.00,1,WeatherHawk,2013-04-17 07:09:00,
2013-04-17 02:14:00,79.5,50.9,30.04,SE,128,9.0,0.0,37,0.00,,,0.00,1,WeatherHawk,2013-04-17 07:14:00,
2013-04-17 02:19:00,79.5,50.9,30.04,SE,128,9.0,0.0,37,0.00,,,0.00,1,WeatherHawk,2013-04-17 07:19:00,
2013-04-17 02:24:00,79.5,50.9,30.04,SE,128,9.0,0.0,37,0.00,,,0.00,1,WeatherHawk,2013-04-17 07:24:00,
2013-04-17 02:29:00,79.5,50.9,30.04,SE,128,9.0,0.0,37,0.00,,,0.00,1,WeatherHawk,2013-04-17 07:29:00,
2013-04-17 02:34:00,79.5,50.9,30.04,SE,128,9.0,0.0,37,0.00,,,0.00,1,WeatherHawk,2013-04-17 07:34:00,
2013-04-17 02:39:00,73.6,57.0,30.07,SE,139,8.0,-999.0,56,0.00,,,0.00,0,WeatherHawk,2013-04-17 07:39:00,
2013-04-17 02:44:00,79.5,50.9,30.04,SE,128,9.0,0.0,37,0.00,,,0.00,1,WeatherHawk,2013-04-17 07:44:00,
2013-04-17 02:49:00,73.6,55.9,30.07,SE,142,8.0,-999.0,54,0.00,,,0.00,0,WeatherHawk,2013-04-17 07:49:00,
2013-04-17 02:54:00,79.5,50.9,30.04,SE,128,9.0,0.0,37,0.00,,,0.00,1,WeatherHawk,2013-04-17 07:54:00,
2013-04-17 02:59:00,79.5,50.9,30.04,SE,128,9.0,0.0,37,0.00,,,0.00,1,WeatherHawk,2013-04-17 07:59:00,
2013-04-17 03:04:00,73.6,57.4,30.07,ESE,106,4.0,0.0,57,0.00,,,0.00,1,WeatherHawk,2013-04-17 08:04:00,
2013-04-17 03:09:00,79.5,50.9,30.04,SE,128,9.0,0.0,37,0.00,,,0.00,1,WeatherHawk,2013-04-17 08:09:00,
2013-04-17 03:14:00,79.5,50.9,30.04,SE,128,9.0,0.0,37,0.00,,,0.00,1,WeatherHawk,2013-04-17 08:14:00,
2013-04-17 03:19:00,79.5,50.9,30.04,SE,128,9.0,0.0,37,0.00,,,0.00,1,WeatherHawk,2013-04-17 08:19:00,
2013-04-17 03:24:00,79.5,50.9,30.04,SE,128,9.0,0.0,37,0.00,,,0.00,1,WeatherHawk,2013-04-17 08:24:00,
2013-04-17 03:29:00,73.3,59.0,30.06,ESE,109,6.0,0.0,61,0.00,,,0.00,0,WeatherHawk,2013-04-17 08:29:00,
2013-04-17 03:34:00,72.8,60.8,30.07,SE,141,7.0,-999.0,66,0.00,,,0.00,0,WeatherHawk,2013-04-17 08:34:00,
2013-04-17 03:39:00,79.5,50.9,30.04,SE,128,9.0,0.0,37,0.00,,,0.00,1,WeatherHawk,2013-04-17 08:39:00,
2013-04-17 03:44:00,79.5,50.9,30.04,SE,128,9.0,0.0,37,0.00,,,0.00,1,WeatherHawk,2013-04-17 08:44:00,
2013-04-17 03:49:00,79.5,50.9,30.04,SE,128,9.0,0.0,37,0.00,,,0.00,1,WeatherHawk,2013-04-17 08:49:00,
2013-04-17 03:54:00,79.5,50.9,30.04,SE,128,9.0,0.0,37,0.00,,,0.00,1,WeatherHawk,2013-04-17 08:54:00,
2013-04-17 03:59:00,72.1,64.1,30.07,ESE,122,5.0,-999.0,76,0.00,,,0.00,0,WeatherHawk,2013-04-17 08:59:00,
2013-04-17 04:04:00,72.0,64.4,30.07,ESE,103,4.0,0.0,77,0.00,,,0.00,1,WeatherHawk,2013-04-17 09:04:00,
2013-04-17 04:09:00,72.1,64.8,30.06,ESE,121,3.0,-999.0,78,0.00,,,0.00,0,WeatherHawk,2013-04-17 09:09:00,
2013-04-17 04:14:00,72.1,65.2,30.06,ESE,107,3.0,0.0,79,0.00,,,0.00,0,WeatherHawk,2013-04-17 09:14:00,
2013-04-17 04:19:00,79.5,50.9,30.04,SE,128,9.0,0.0,37,0.00,,,0.00,1,WeatherHawk,2013-04-17 09:19:00,
2013-04-17 04:24:00,79.5,50.9,30.04,SE,128,9.0,0.0,37,0.00,,,0.00,1,WeatherHawk,2013-04-17 09:24:00,
2013-04-17 04:29:00,79.5,50.9,30.04,SE,128,9.0,0.0,37,0.00,,,0.00,1,WeatherHawk,2013-04-17 09:29:00,
2013-04-17 04:34:00,79.5,50.9,30.04,SE,128,9.0,0.0,37,0.00,,,0.00,1,WeatherHawk,2013-04-17 09:34:00,
2013-04-17 04:39:00,79.5,50.9,30.04,SE,128,9.0,0.0,37,0.00,,,0.00,1,WeatherHawk,2013-04-17 09:39:00,
2013-04-17 04:44:00,73.3,65.3,30.06,ESE,113,6.0,0.0,76,0.00,,,0.00,0,WeatherHawk,2013-04-17 09:44:00,
2013-04-17 04:49:00,79.5,50.9,30.04,SE,128,9.0,0.0,37,0.00,,,0.00,1,WeatherHawk,2013-04-17 09:49:00,
2013-04-17 04:54:00,79.5,50.9,30.04,SE,128,9.0,0.0,37,0.00,,,0.00,1,WeatherHawk,2013-04-17 09:54:00,
2013-04-17 04:59:00,79.5,50.9,30.04,SE,128,9.0,0.0,37,0.00,,,0.00,1,WeatherHawk,2013-04-17 09:59:00,
2013-04-17 05:04:00,79.5,50.9,30.04,SE,128,9.0,0.0,37,0.00,,,0.00,1,WeatherHawk,2013-04-17 10:04:00,
2013-04-17 05:09:00,79.5,50.9,30.04,SE,128,9.0,0.0,37,0.00,,,0.00,1,WeatherHawk,2013-04-17 10:09:00,
2013-04-17 05:14:00,79.5,50.9,30.04,SE,128,9.0,0.0,37,0.00,,,0.00,1,WeatherHawk,2013-04-17 10:14:00,
2013-04-17 05:19:00,79.5,50.9,30.04,SE,128,9.0,0.0,37,0.00,,,0.00,1,WeatherHawk,2013-04-17 10:19:00,
2013-04-17 05:24:00,79.5,50.9,30.04,SE,128,9.0,0.0,37,0.00,,,0.00,1,WeatherHawk,2013-04-17 10:24:00,
2013-04-17 05:29:00,79.5,50.9,30.04,SE,128,9.0,0.0,37,0.00,,,0.00,1,WeatherHawk,2013-04-17 10:29:00,
2013-04-17 05:34:00,79.5,50.9,30.04,SE,128,9.0,0.0,37,0.00,,,0.00,1,WeatherHawk,2013-04-17 10:34:00,
2013-04-17 05:39:00,79.5,50.9,30.04,SE,128,9.0,0.0,37,0.00,,,0.00,1,WeatherHawk,2013-04-17 10:39:00,
2013-04-17 05:44:00,79.5,50.9,30.04,SE,128,9.0,0.0,37,0.00,,,0.00,1,WeatherHawk,2013-04-17 10:44:00,
2013-04-17 05:49:00,79.5,50.9,30.04,SE,128,9.0,0.0,37,0.00,,,0.00,1,WeatherHawk,2013-04-17 10:49:00,
2013-04-17 05:54:00,79.5,50.9,30.04,SE,128,9.0,0.0,37,0.00,,,0.00,1,WeatherHawk,2013-04-17 10:54:00,
2013-04-17 05:59:00,74.2,62.5,30.06,SE,133,11.0,0.0,67,0.00,,,0.00,1,WeatherHawk,2013-04-17 10:59:00,
2013-04-17 06:04:00,79.5,50.9,30.04,SE,128,9.0,0.0,37,0.00,,,0.00,1,WeatherHawk,2013-04-17 11:04:00,
2013-04-17 06:09:00,73.7,62.9,30.05,SSE,163,9.0,0.0,69,0.00,,,0.00,0,WeatherHawk,2013-04-17 11:09:00,
2013-04-17 06:14:00,73.6,62.8,30.06,ESE,117,12.0,0.0,69,0.00,,,0.00,0,WeatherHawk,2013-04-17 11:14:00,
2013-04-17 06:19:00,73.5,62.7,30.07,South,169,10.0,0.0,69,0.00,,,0.00,0,WeatherHawk,2013-04-17 11:19:00,
2013-04-17 06:24:00,79.5,50.9,30.04,SE,128,9.0,0.0,37,0.00,,,0.00,1,WeatherHawk,2013-04-17 11:24:00,
2013-04-17 06:29:00,79.5,50.9,30.04,SE,128,9.0,0.0,37,0.00,,,0.00,1,WeatherHawk,2013-04-17 11:29:00,
2013-04-17 06:34:00,79.5,50.9,30.04,SE,128,9.0,0.0,37,0.00,,,0.00,1,WeatherHawk,2013-04-17 11:34:00,
2013-04-17 06:39:00,79.5,50.9,30.04,SE,128,9.0,0.0,37,0.00,,,0.00,1,WeatherHawk,2013-04-17 11:39:00,
2013-04-17 06:44:00,79.5,50.9,30.04,SE,128,9.0,0.0,37,0.00,,,0.00,1,WeatherHawk,2013-04-17 11:44:00,
2013-04-17 06:49:00,74.4,60.0,30.06,SE,124,6.0,0.0,61,0.00,,,0.00,1,WeatherHawk,2013-04-17 11:49:00,
2013-04-17 06:54:00,79.5,50.9,30.04,SE,128,9.0,0.0,37,0.00,,,0.00,1,WeatherHawk,2013-04-17 11:54:00,
2013-04-17 06:59:00,79.5,50.9,30.04,SE,128,9.0,0.0,37,0.00,,,0.00,1,WeatherHawk,2013-04-17 11:59:00,
2013-04-17 07:04:00,79.5,50.9,30.04,SE,128,9.0,0.0,37,0.00,,,0.00,1,WeatherHawk,2013-04-17 12:04:00,
2013-04-17 07:09:00,79.5,50.9,30.04,SE,128,9.0,0.0,37,0.00,,,0.00,1,WeatherHawk,2013-04-17 12:09:00,
2013-04-17 07:14:00,79.5,50.9,30.04,SE,128,9.0,0.0,37,0.00,,,0.00,1,WeatherHawk,2013-04-17 12:14:00,
2013-04-17 07:19:00,79.5,50.9,30.04,SE,128,9.0,0.0,37,0.00,,,0.00,1,WeatherHawk,2013-04-17 12:19:00,
2013-04-17 07:24:00,74.6,57.4,30.07,ESE,116,6.0,-999.0,55,0.00,,,0.00,9,WeatherHawk,2013-04-17 12:24:00,
2013-04-17 07:29:00,79.5,50.9,30.04,SE,128,9.0,0.0,37,0.00,,,0.00,1,WeatherHawk,2013-04-17 12:29:00,
2013-04-17 07:34:00,79.5,50.9,30.04,SE,128,9.0,0.0,37,0.00,,,0.00,1,WeatherHawk,2013-04-17 12:34:00,
2013-04-17 07:39:00,79.5,50.9,30.04,SE,128,9.0,0.0,37,0.00,,,0.00,1,WeatherHawk,2013-04-17 12:39:00,
2013-04-17 07:44:00,79.5,50.9,30.04,SE,128,9.0,0.0,37,0.00,,,0.00,1,WeatherHawk,2013-04-17 12:44:00,
2013-04-17 07:49:00,79.5,50.9,30.04,SE,128,9.0,0.0,37,0.00,,,0.00,1,WeatherHawk,2013-04-17 12:49:00,
2013-04-17 07:54:00,79.5,50.9,30.04,SE,128,9.0,0.0,37,0.00,,,0.00,1,WeatherHawk,2013-04-17 12:54:00,
2013-04-17 07:59:00,79.5,50.9,30.04,SE,128,9.0,0.0,37,0.00,,,0.00,1,WeatherHawk,2013-04-17 12:59:00,
2013-04-17 08:04:00,79.5,50.9,30.04,SE,128,9.0,0.0,37,0.00,,,0.00,1,WeatherHawk,2013-04-17 13:04:00,
2013-04-17 08:09:00,79.5,50.9,30.04,SE,128,9.0,0.0,37,0.00,,,0.00,1,WeatherHawk,2013-04-17 13:09:00,
2013-04-17 08:14:00,79.5,50.9,30.04,SE,128,9.0,0.0,37,0.00,,,0.00,1,WeatherHawk,2013-04-17 13:14:00,
2013-04-17 08:19:00,79.5,50.9,30.04,SE,128,9.0,0.0,37,0.00,,,0.00,1,WeatherHawk,2013-04-17 13:19:00,
2013-04-17 08:24:00,75.0,54.5,30.06,SSE,155,15.0,-999.0,49,0.00,,,0.00,134,WeatherHawk,2013-04-17 13:24:00,
2013-04-17 08:29:00,79.5,50.9,30.04,SE,128,9.0,0.0,37,0.00,,,0.00,1,WeatherHawk,2013-04-17 13:29:00,
2013-04-17 08:34:00,79.5,50.9,30.04,SE,128,9.0,0.0,37,0.00,,,0.00,1,WeatherHawk,2013-04-17 13:34:00,
2013-04-17 08:39:00,79.5,50.9,30.04,SE,128,9.0,0.0,37,0.00,,,0.00,1,WeatherHawk,2013-04-17 13:39:00,
2013-04-17 08:44:00,79.5,50.9,30.04,SE,128,9.0,0.0,37,0.00,,,0.00,1,WeatherHawk,2013-04-17 13:44:00,
2013-04-17 08:49:00,79.5,50.9,30.04,SE,128,9.0,0.0,37,0.00,,,0.00,1,WeatherHawk,2013-04-17 13:49:00,
2013-04-17 08:54:00,79.5,50.9,30.04,SE,128,9.0,0.0,37,0.00,,,0.00,1,WeatherHawk,2013-04-17 13:54:00,
2013-04-17 08:59:00,79.5,50.9,30.04,SE,128,9.0,0.0,37,0.00,,,0.00,1,WeatherHawk,2013-04-17 13:59:00,
2013-04-17 09:04:00,79.5,50.9,30.04,SE,128,9.0,0.0,37,0.00,,,0.00,1,WeatherHawk,2013-04-17 14:04:00,
2013-04-17 09:09:00,79.5,50.9,30.04,SE,128,9.0,0.0,37,0.00,,,0.00,1,WeatherHawk,2013-04-17 14:09:00,
2013-04-17 09:14:00,79.5,50.9,30.04,SE,128,9.0,0.0,37,0.00,,,0.00,1,WeatherHawk,2013-04-17 14:14:00,
2013-04-17 09:19:00,79.5,50.9,30.04,SE,128,9.0,0.0,37,0.00,,,0.00,1,WeatherHawk,2013-04-17 14:19:00,
2013-04-17 09:24:00,79.5,50.9,30.04,SE,128,9.0,0.0,37,0.00,,,0.00,1,WeatherHawk,2013-04-17 14:24:00,
2013-04-17 09:29:00,79.5,50.9,30.04,SE,128,9.0,0.0,37,0.00,,,0.00,1,WeatherHawk,2013-04-17 14:29:00,
2013-04-17 09:34:00,75.3,51.9,30.04,SE,132,12.0,0.0,44,0.00,,,0.00,94,WeatherHawk,2013-04-17 14:34:00,
2013-04-17 09:39:00,79.5,50.9,30.04,SE,128,9.0,0.0,37,0.00,,,0.00,1,WeatherHawk,2013-04-17 14:39:00,
2013-04-17 09:44:00,79.5,50.9,30.04,SE,128,9.0,0.0,37,0.00,,,0.00,1,WeatherHawk,2013-04-17 14:44:00,
2013-04-17 09:49:00,79.5,50.9,30.04,SE,128,9.0,0.0,37,0.00,,,0.00,1,WeatherHawk,2013-04-17 14:49:00,
2013-04-17 09:54:00,79.5,50.9,30.04,SE,128,9.0,0.0,37,0.00,,,0.00,1,WeatherHawk,2013-04-17 14:54:00,
2013-04-17 09:59:00,79.5,50.9,30.04,SE,128,9.0,0.0,37,0.00,,,0.00,1,WeatherHawk,2013-04-17 14:59:00,
2013-04-17 10:04:00,79.5,50.9,30.04,SE,128,9.0,0.0,37,0.00,,,0.00,1,WeatherHawk,2013-04-17 15:04:00,
2013-04-17 10:09:00,79.5,50.9,30.04,SE,128,9.0,0.0,37,0.00,,,0.00,1,WeatherHawk,2013-04-17 15:09:00,
2013-04-17 10:14:00,79.5,50.9,30.04,SE,128,9.0,0.0,37,0.00,,,0.00,1,WeatherHawk,2013-04-17 15:14:00,
2013-04-17 10:19:00,79.5,50.9,30.04,SE,128,9.0,0.0,37,0.00,,,0.00,1,WeatherHawk,2013-04-17 15:19:00,
2013-04-17 10:24:00,76.8,49.3,30.04,SSE,163,15.0,-999.0,38,0.00,,,0.00,287,WeatherHawk,2013-04-17 15:24:00,
2013-04-17 10:29:00,79.5,50.9,30.04,SE,128,9.0,0.0,37,0.00,,,0.00,1,WeatherHawk,2013-04-17 15:29:00,
2013-04-17 10:34:00,79.5,50.9,30.04,SE,128,9.0,0.0,37,0.00,,,0.00,1,WeatherHawk,2013-04-17 15:34:00,
2013-04-17 10:39:00,78.0,48.1,30.04,ESE,107,12.0,0.0,35,0.00,,,0.00,275,WeatherHawk,2013-04-17 15:39:00,
2013-04-17 10:44:00,79.5,50.9,30.04,SE,128,9.0,0.0,37,0.00,,,0.00,1,WeatherHawk,2013-04-17 15:44:00,
2013-04-17 10:49:00,79.5,50.9,30.04,SE,128,9.0,0.0,37,0.00,,,0.00,1,WeatherHawk,2013-04-17 15:49:00,
2013-04-17 10:54:00,79.5,50.9,30.04,SE,128,9.0,0.0,37,0.00,,,0.00,1,WeatherHawk,2013-04-17 15:54:00,
2013-04-17 10:59:00,79.5,50.9,30.04,SE,128,9.0,0.0,37,0.00,,,0.00,1,WeatherHawk,2013-04-17 15:59:00,
2013-04-17 11:04:00,79.5,50.9,30.04,SE,128,9.0,0.0,37,0.00,,,0.00,1,WeatherHawk,2013-04-17 16:04:00,
2013-04-17 11:09:00,79.5,50.9,30.04,SE,128,9.0,0.0,37,0.00,,,0.00,1,WeatherHawk,2013-04-17 16:09:00,
2013-04-17 11:14:00,79.5,50.9,30.04,SE,128,9.0,0.0,37,0.00,,,0.00,1,WeatherHawk,2013-04-17 16:14:00,
2013-04-17 11:19:00,79.5,50.9,30.04,SE,128,9.0,0.0,37,0.00,,,0.00,1,WeatherHawk,2013-04-17 16:19:00,
2013-04-17 11:24:00,81.4,46.0,30.02,SSE,168,16.0,0.0,29,0.00,,,0.00,839,WeatherHawk,2013-04-17 16:24:00,
2013-04-17 11:29:00,79.5,50.9,30.04,SE,128,9.0,0.0,37,0.00,,,0.00,1,WeatherHawk,2013-04-17 16:29:00,
2013-04-17 11:34:00,79.5,50.9,30.04,SE,128,9.0,0.0,37,0.00,,,0.00,1,WeatherHawk,2013-04-17 16:34:00,
2013-04-17 11:39:00,79.5,50.9,30.04,SE,128,9.0,0.0,37,0.00,,,0.00,1,WeatherHawk,2013-04-17 16:39:00,
2013-04-17 11:44:00,79.5,50.9,30.04,SE,128,9.0,0.0,37,0.00,,,0.00,1,WeatherHawk,2013-04-17 16:44:00,
2013-04-17 11:49:00,79.5,50.9,30.04,SE,128,9.0,0.0,37,0.00,,,0.00,1,WeatherHawk,2013-04-17 16:49:00,
2013-04-17 11:54:00,79.5,50.9,30.04,SE,128,9.0,0.0,37,0.00,,,0.00,1,WeatherHawk,2013-04-17 16:54:00,
2013-04-17 11:59:00,79.5,50.9,30.04,SE,128,9.0,0.0,37,0.00,,,0.00,1,WeatherHawk,2013-04-17 16:59:00,
2013-04-17 12:04:00,79.5,50.9,30.04,SE,128,9.0,0.0,37,0.00,,,0.00,1,WeatherHawk,2013-04-17 17:04:00,
2013-04-17 12:09:00,79.5,50.9,30.04,SE,128,9.0,0.0,37,0.00,,,0.00,1,WeatherHawk,2013-04-17 17:09:00,
2013-04-17 12:14:00,80.9,42.8,29.99,SE,146,15.0,0.0,26,0.00,,,0.00,651,WeatherHawk,2013-04-17 17:14:00,
2013-04-17 12:19:00,82.2,44.9,29.99,SSE,160,7.0,0.0,27,0.00,,,0.00,511,WeatherHawk,2013-04-17 17:19:00,
2013-04-17 12:24:00,79.5,50.9,30.04,SE,128,9.0,0.0,37,0.00,,,0.00,1,WeatherHawk,2013-04-17 17:24:00,
2013-04-17 12:29:00,80.7,42.6,29.98,SE,135,17.0,-999.0,26,0.00,,,0.00,553,WeatherHawk,2013-04-17 17:29:00,
2013-04-17 12:34:00,82.8,42.3,29.98,SSE,161,12.0,0.0,24,0.00,,,0.00,369,WeatherHawk,2013-04-17 17:34:00,
2013-04-17 12:39:00,82.4,42.0,29.97,SE,144,13.0,-999.0,24,0.00,,,0.00,926,WeatherHawk,2013-04-17 17:39:00,
2013-04-17 12:44:00,84.0,42.2,29.97,SSE,153,10.0,0.0,23,0.00,,,0.00,476,WeatherHawk,2013-04-17 17:44:00,
2013-04-17 12:49:00,82.4,42.0,29.97,SE,138,15.0,0.0,24,0.00,,,0.00,773,WeatherHawk,2013-04-17 17:49:00,
2013-04-17 12:54:00,82.2,40.7,29.96,SSE,148,14.0,0.0,23,0.00,,,0.00,508,WeatherHawk,2013-04-17 17:54:00,
2013-04-17 12:59:00,82.2,41.8,29.96,ESE,114,12.0,0.0,24,0.00,,,0.00,365,WeatherHawk,2013-04-17 17:59:00,
2013-04-17 13:05:00,82.9,42.4,29.95,South,182,15.0,0.0,24,0.00,,,0.00,955,WeatherHawk,2013-04-17 18:05:00,
2013-04-17 13:11:00,82.7,39.9,29.97,SSE,157,20.0,0.0,22,0.00,,,0.00,917,WeatherHawk,2013-04-17 18:11:00,
2013-04-17 13:16:00,83.6,40.7,29.94,ESE,112,16.0,0.0,22,0.00,,,0.00,881,WeatherHawk,2013-04-17 18:16:00,
2013-04-17 13:21:00,84.2,42.4,29.94,SE,146,13.0,0.0,23,0.00,,,0.00,880,WeatherHawk,2013-04-17 18:21:00,
2013-04-17 13:27:00,84.1,39.9,29.95,SSE,168,15.0,0.0,21,0.00,,,0.00,413,WeatherHawk,2013-04-17 18:27:00,
2013-04-17 13:32:00,83.3,40.5,29.94,SSE,147,20.0,0.0,22,0.00,,,0.00,553,WeatherHawk,2013-04-17 18:32:00,
2013-04-17 13:38:00,83.5,39.4,29.92,ESE,119,15.0,0.0,21,0.00,,,0.00,938,WeatherHawk,2013-04-17 18:38:00,
2013-04-17 13:43:00,83.4,41.7,29.94,ESE,118,14.0,0.0,23,0.00,,,0.00,855,WeatherHawk,2013-04-17 18:43:00,
2013-04-17 13:49:00,84.1,41.1,29.92,ESE,114,15.0,0.0,22,0.00,,,0.00,356,WeatherHawk,2013-04-17 18:49:00,
2013-04-17 13:54:00,84.8,40.5,29.94,SE,146,18.0,0.0,21,0.00,,,0.00,901,WeatherHawk,2013-04-17 18:54:00,
2013-04-17 13:59:00,84.3,40.1,29.93,SSE,151,20.0,0.0,21,0.00,,,0.00,907,WeatherHawk,2013-04-17 18:59:00,
2013-04-17 14:04:00,84.7,37.8,29.93,South,169,17.0,0.0,19,0.00,,,0.00,876,WeatherHawk,2013-04-17 19:04:00,
2013-04-17 14:09:00,83.7,37.0,29.94,South,175,18.0,0.0,19,0.00,,,0.00,861,WeatherHawk,2013-04-17 19:09:00,
2013-04-17 14:15:00,84.5,36.3,29.92,SSE,158,14.0,0.0,18,0.00,,,0.00,974,WeatherHawk,2013-04-17 19:15:00,
2013-04-17 14:21:00,85.0,39.4,29.92,ESE,121,13.0,0.0,20,0.00,,,0.00,748,WeatherHawk,2013-04-17 19:21:00,
2013-04-17 14:26:00,84.5,37.7,29.91,SE,133,14.0,0.0,19,0.00,,,0.00,916,WeatherHawk,2013-04-17 19:26:00,
2013-04-17 14:31:00,84.8,35.1,29.91,South,174,22.0,0.0,17,0.00,,,0.00,1053,WeatherHawk,2013-04-17 19:31:00,
2013-04-17 14:37:00,84.9,36.7,29.88,SSW,202,20.0,0.0,18,0.00,,,0.00,503,WeatherHawk,2013-04-17 19:37:00,
2013-04-17 14:42:00,86.2,37.7,29.90,ESE,118,12.0,0.0,18,0.00,,,0.00,529,WeatherHawk,2013-04-17 19:42:00,
2013-04-17 14:48:00,85.8,38.8,29.91,SE,143,13.0,0.0,19,0.00,,,0.00,955,WeatherHawk,2013-04-17 19:48:00,
2013-04-17 14:53:00,84.9,39.4,29.90,SE,126,17.0,0.0,20,0.00,,,0.00,403,WeatherHawk,2013-04-17 19:53:00,
2013-04-17 14:58:00,84.5,37.7,29.91,SE,128,18.0,0.0,19,0.00,,,0.00,369,WeatherHawk,2013-04-17 19:58:00,
2013-04-17 15:03:00,85.1,40.7,29.90,SSE,152,13.0,0.0,21,0.00,,,0.00,330,WeatherHawk,2013-04-17 20:03:00,
2013-04-17 15:09:00,84.6,39.1,29.91,SSE,168,15.0,0.0,20,0.00,,,0.00,270,WeatherHawk,2013-04-17 20:09:00,
2013-04-17 15:14:00,83.5,39.4,29.91,SSE,152,19.0,0.0,21,0.00,,,0.00,285,WeatherHawk,2013-04-17 20:14:00,
2013-04-17 15:19:00,83.7,39.6,29.90,ESE,113,24.0,-999.0,21,0.00,,,0.00,321,WeatherHawk,2013-04-17 20:19:00,
2013-04-17 15:24:00,85.0,41.8,29.90,SE,126,13.0,0.0,22,0.00,,,0.00,296,WeatherHawk,2013-04-17 20:24:00,
2013-04-17 15:29:00,84.2,41.2,29.90,SE,135,15.0,0.0,22,0.00,,,0.00,291,WeatherHawk,2013-04-17 20:29:00,
2013-04-17 15:35:00,84.8,41.7,29.89,SSE,165,10.0,0.0,22,0.00,,,0.00,254,WeatherHawk,2013-04-17 20:35:00,
2013-04-17 15:40:00,84.3,41.3,29.87,SE,126,11.0,0.0,22,0.00,,,0.00,261,WeatherHawk,2013-04-17 20:40:00,
2013-04-17 15:45:00,85.1,42.0,29.88,SE,143,11.0,0.0,22,0.00,,,0.00,388,WeatherHawk,2013-04-17 20:45:00,
2013-04-17 15:50:00,84.6,41.5,29.88,SE,145,15.0,0.0,22,0.00,,,0.00,416,WeatherHawk,2013-04-17 20:50:00,
2013-04-17 15:55:00,84.6,41.5,29.89,SE,145,11.0,0.0,22,0.00,,,0.00,235,WeatherHawk,2013-04-17 20:55:00,
2013-04-17 16:00:00,84.1,41.2,29.88,SE,126,10.0,0.0,22,0.00,,,0.00,216,WeatherHawk,2013-04-17 21:00:00,
2013-04-17 16:05:00,84.4,41.4,29.88,SSE,149,11.0,0.0,22,0.00,,,0.00,266,WeatherHawk,2013-04-17 21:05:00,
2013-04-17 16:11:00,84.6,41.5,29.88,ESE,121,10.0,0.0,22,0.00,,,0.00,302,WeatherHawk,2013-04-17 21:11:00,
2013-04-17 16:16:00,84.2,41.2,29.88,ESE,118,19.0,0.0,22,0.00,,,0.00,335,WeatherHawk,2013-04-17 21:16:00,
2013-04-17 16:22:00,85.1,41.9,29.89,SE,133,9.0,0.0,22,0.00,,,0.00,204,WeatherHawk,2013-04-17 21:22:00,
2013-04-17 16:27:00,84.8,41.7,29.88,SE,130,17.0,0.0,22,0.00,,,0.00,342,WeatherHawk,2013-04-17 21:27:00,
2013-04-17 16:32:00,84.8,40.5,29.86,SE,146,12.0,0.0,21,0.00,,,0.00,280,WeatherHawk,2013-04-17 21:32:00,
2013-04-17 16:38:00,85.1,40.8,29.88,SSE,161,13.0,0.0,21,0.00,,,0.00,551,WeatherHawk,2013-04-17 21:38:00,
2013-04-17 16:43:00,84.2,41.2,29.86,ESE,105,12.0,0.0,22,0.00,,,0.00,163,WeatherHawk,2013-04-17 21:43:00,
2013-04-17 16:48:00,84.2,41.2,29.87,South,172,18.0,0.0,22,0.00,,,0.00,115,WeatherHawk,2013-04-17 21:48:00,
2013-04-17 16:54:00,84.0,42.2,29.87,ESE,110,10.0,0.0,23,0.00,,,0.00,94,WeatherHawk,2013-04-17 21:54:00,
2013-04-17 16:59:00,83.7,41.9,29.86,SSE,156,16.0,0.0,23,0.00,,,0.00,88,WeatherHawk,2013-04-17 21:59:00,
2013-04-17 17:04:00,83.7,42.0,29.87,SE,128,13.0,0.0,23,0.00,,,0.00,98,WeatherHawk,2013-04-17 22:04:00,
2013-04-17 17:10:00,83.4,42.8,29.87,ESE,115,18.0,0.0,24,0.00,,,0.00,75,WeatherHawk,2013-04-17 22:10:00,
2013-04-17 17:16:00,83.6,43.0,29.87,South,182,13.0,0.0,24,0.00,,,0.00,116,WeatherHawk,2013-04-17 22:16:00,
2013-04-17 17:22:00,83.4,43.9,29.87,SSE,151,15.0,0.0,25,0.00,,,0.00,158,WeatherHawk,2013-04-17 22:22:00,
2013-04-17 17:28:00,83.2,42.6,29.86,SE,144,19.0,0.0,24,0.00,,,0.00,140,WeatherHawk,2013-04-17 22:28:00,
2013-04-17 17:34:00,83.2,43.7,29.87,SSE,147,10.0,0.0,25,0.00,,,0.00,77,WeatherHawk,2013-04-17 22:34:00,
2013-04-17 17:39:00,82.8,43.4,29.86,SE,141,16.0,0.0,25,0.00,,,0.00,90,WeatherHawk,2013-04-17 22:39:00,
2013-04-17 17:44:00,82.9,43.5,29.86,SSE,150,9.0,0.0,25,0.00,,,0.00,128,WeatherHawk,2013-04-17 22:44:00,
2013-04-17 17:49:00,82.9,43.5,29.84,SSE,151,11.0,0.0,25,0.00,,,0.00,130,WeatherHawk,2013-04-17 22:49:00,
2013-04-17 17:54:00,82.8,44.4,29.84,SE,134,8.0,0.0,26,0.00,,,0.00,130,WeatherHawk,2013-04-17 22:54:00,
2013-04-17 17:59:00,82.7,44.3,29.85,SE,129,13.0,0.0,26,0.00,,,0.00,153,WeatherHawk,2013-04-17 22:59:00,
2013-04-17 18:04:00,82.5,44.1,29.88,SE,139,18.0,-999.0,26,0.00,,,0.00,131,WeatherHawk,2013-04-17 23:04:00,
2013-04-17 18:09:00,82.5,44.1,29.86,SE,140,14.0,0.0,26,0.00,,,0.00,109,WeatherHawk,2013-04-17 23:09:00,
2013-04-17 18:15:00,82.7,44.3,29.85,South,171,16.0,0.0,26,0.00,,,0.00,95,WeatherHawk,2013-04-17 23:15:00,
2013-04-17 18:20:00,82.5,44.1,29.87,ESE,120,10.0,0.0,26,0.00,,,0.00,66,WeatherHawk,2013-04-17 23:20:00,
2013-04-17 18:25:00,82.4,44.1,29.86,SE,132,12.0,0.0,26,0.00,,,0.00,61,WeatherHawk,2013-04-17 23:25:00,
2013-04-17 18:31:00,82.1,44.8,29.84,SSE,161,12.0,0.0,27,0.00,,,0.00,58,WeatherHawk,2013-04-17 23:31:00,
2013-04-17 18:36:00,81.9,44.6,29.85,SE,139,15.0,0.0,27,0.00,,,0.00,60,WeatherHawk,2013-04-17 23:36:00,
2013-04-17 18:42:00,81.9,45.6,29.85,South,180,8.0,0.0,28,0.00,,,0.00,37,WeatherHawk,2013-04-17 23:42:00,
2013-04-17 18:48:00,81.7,45.4,29.85,SE,130,10.0,0.0,28,0.00,,,0.00,24,WeatherHawk,2013-04-17 23:48:00,
2013-04-17 18:53:00,81.6,45.3,29.85,SE,143,12.0,0.0,28,0.00,,,0.00,18,WeatherHawk,2013-04-17 23:53:00,
2013-04-17 18:59:00,81.5,45.3,29.84,SE,138,15.0,0.0,28,0.00,,,0.00,20,WeatherHawk,2013-04-17 23:59:00,
2013-04-17 19:04:00,81.5,45.2,29.85,SSE,163,13.0,0.0,28,0.00,,,0.00,15,WeatherHawk,2013-04-18 00:04:00,
2013-04-17 19:09:00,81.4,45.1,29.85,SE,146,17.0,0.0,28,0.00,,,0.00,16,WeatherHawk,2013-04-18 00:09:00,
2013-04-17 19:14:00,81.3,45.1,29.83,SSE,165,17.0,0.0,28,0.00,,,0.00,21,WeatherHawk,2013-04-18 00:14:00,
2013-04-17 19:19:00,81.3,45.0,29.83,SSE,151,8.0,-999.0,28,0.00,,,0.00,11,WeatherHawk,2013-04-18 00:19:00,
2013-04-17 19:25:00,81.1,44.9,29.84,ESE,119,12.0,0.0,28,0.00,,,0.00,5,WeatherHawk,2013-04-18 00:25:00,
2013-04-17 19:30:00,80.9,45.6,29.84,SSE,151,13.0,0.0,29,0.00,,,0.00,11,WeatherHawk,2013-04-18 00:30:00,
2013-04-17 19:35:00,80.7,45.5,29.83,East,94,8.0,0.0,29,0.00,,,0.00,12,WeatherHawk,2013-04-18 00:35:00,
2013-04-17 19:40:00,80.7,45.5,29.84,South,183,16.0,0.0,29,0.00,,,0.00,12,WeatherHawk,2013-04-18 00:40:00,
2013-04-17 19:46:00,80.6,45.4,29.85,South,190,9.0,0.0,29,0.00,,,0.00,6,WeatherHawk,2013-04-18 00:46:00,
2013-04-17 19:51:00,80.5,45.3,29.85,SSE,149,14.0,0.0,29,0.00,,,0.00,4,WeatherHawk,2013-04-18 00:51:00,
2013-04-17 19:56:00,80.4,45.2,29.84,SE,141,9.0,0.0,29,0.00,,,0.00,1,WeatherHawk,2013-04-18 00:56:00,
2013-04-17 20:01:00,80.3,45.1,29.86,SE,131,8.0,0.0,29,0.00,,,0.00,1,WeatherHawk,2013-04-18 01:01:00,
2013-04-17 20:07:00,80.3,45.1,29.84,East,90,19.0,0.0,29,0.00,,,0.00,1,WeatherHawk,2013-04-18 01:07:00,
2013-04-17 20:12:00,80.3,46.0,29.85,SSE,151,9.0,0.0,30,0.00,,,0.00,0,WeatherHawk,2013-04-18 01:12:00,
2013-04-17 20:18:00,80.1,45.8,29.84,SSE,164,9.0,0.0,30,0.00,,,0.00,1,WeatherHawk,2013-04-18 01:18:00,
2013-04-17 20:23:00,79.9,45.7,29.83,ESE,104,11.0,0.0,30,0.00,,,0.00,0,WeatherHawk,2013-04-18 01:23:00,
2013-04-17 20:28:00,79.7,46.4,29.84,SE,143,12.0,0.0,31,0.00,,,0.00,0,WeatherHawk,2013-04-18 01:28:00,
2013-04-17 20:34:00,79.7,47.2,29.83,SE,146,14.0,0.0,32,0.00,,,0.00,0,WeatherHawk,2013-04-18 01:34:00,
2013-04-17 20:39:00,79.5,47.1,29.83,SSE,157,9.0,0.0,32,0.00,,,0.00,1,WeatherHawk,2013-04-18 01:39:00,
2013-04-17 20:44:00,79.5,48.7,29.83,SSE,156,18.0,0.0,34,0.00,,,0.00,1,WeatherHawk,2013-04-18 01:44:00,
2013-04-17 20:50:00,79.3,48.5,29.82,SE,136,10.0,0.0,34,0.00,,,0.00,0,WeatherHawk,2013-04-18 01:50:00,
2013-04-17 20:54:00,79.4,49.3,29.82,ESE,106,17.0,0.0,35,0.00,,,0.00,0,WeatherHawk,2013-04-18 01:54:00,
2013-04-17 20:59:00,79.1,49.1,29.81,East,96,18.0,0.0,35,0.00,,,0.00,0,WeatherHawk,2013-04-18 01:59:00,
2013-04-17 21:05:00,78.9,49.7,29.83,ESE,120,9.0,0.0,36,0.00,,,0.00,0,WeatherHawk,2013-04-18 02:05:00,
2013-04-17 21:10:00,78.8,50.3,29.83,SE,129,6.0,0.0,37,0.00,,,0.00,0,WeatherHawk,2013-04-18 02:10:00,
2013-04-17 21:15:00,78.6,50.9,29.83,SE,127,11.0,0.0,38,0.00,,,0.00,0,WeatherHawk,2013-04-18 02:15:00,
2013-04-17 21:21:00,78.6,51.5,29.82,SE,141,12.0,0.0,39,0.00,,,0.00,0,WeatherHawk,2013-04-18 02:21:00,
2013-04-17 21:26:00,78.5,52.1,29.83,ESE,117,18.0,0.0,40,0.00,,,0.00,0,WeatherHawk,2013-04-18 02:26:00,
2013-04-17 21:32:00,78.4,52.8,29.84,SE,132,22.0,0.0,41,0.00,,,0.00,0,WeatherHawk,2013-04-18 02:32:00,
2013-04-17 21:37:00,78.5,53.4,29.84,SSE,149,20.0,0.0,42,0.00,,,0.00,0,WeatherHawk,2013-04-18 02:37:00,
2013-04-17 21:42:00,78.3,53.3,29.84,SSE,149,19.0,0.0,42,0.00,,,0.00,0,WeatherHawk,2013-04-18 02:42:00,
2013-04-17 21:47:00,78.0,53.7,29.84,South,175,5.0,0.0,43,0.00,,,0.00,0,WeatherHawk,2013-04-18 02:47:00,
2013-04-17 21:52:00,78.1,53.7,29.84,ESE,119,12.0,0.0,43,0.00,,,0.00,0,WeatherHawk,2013-04-18 02:52:00,
2013-04-17 21:57:00,78.1,54.3,29.83,SE,128,24.0,0.0,44,0.00,,,0.00,2,WeatherHawk,2013-04-18 02:57:00,
2013-04-17 22:03:00,77.9,54.2,29.83,SE,129,11.0,0.0,44,0.00,,,0.00,0,WeatherHawk,2013-04-18 03:03:00,
2013-04-17 22:08:00,77.9,54.8,29.84,ESE,107,9.0,0.0,45,0.00,,,0.00,0,WeatherHawk,2013-04-18 03:08:00,
2013-04-17 22:13:00,77.8,54.7,29.84,SE,130,20.0,0.0,45,0.00,,,0.00,1,WeatherHawk,2013-04-18 03:13:00,
2013-04-17 22:18:00,77.7,54.7,29.84,SSE,166,13.0,0.0,45,0.00,,,0.00,0,WeatherHawk,2013-04-18 03:18:00,
2013-04-17 22:23:00,77.7,55.2,29.84,SSE,147,14.0,0.0,46,0.00,,,0.00,0,WeatherHawk,2013-04-18 03:23:00,
2013-04-17 22:28:00,77.4,55.6,29.84,SSE,167,15.0,0.0,47,0.00,,,0.00,1,WeatherHawk,2013-04-18 03:28:00,
2013-04-17 22:34:00,77.3,56.0,29.84,SSE,161,13.0,0.0,48,0.00,,,0.00,0,WeatherHawk,2013-04-18 03:34:00,
2013-04-17 22:39:00,77.2,56.5,29.82,SSE,165,13.0,0.0,49,0.00,,,0.00,0,WeatherHawk,2013-04-18 03:39:00,
2013-04-17 22:44:00,77.0,56.3,29.83,SE,143,18.0,0.0,49,0.00,,,0.00,0,WeatherHawk,2013-04-18 03:44:00,
2013-04-17 22:49:00,76.9,56.8,29.83,SSE,148,15.0,0.0,50,0.00,,,0.00,0,WeatherHawk,2013-04-18 03:49:00,
2013-04-17 22:54:00,76.8,56.7,29.84,ESE,117,10.0,-999.0,50,0.00,,,0.00,0,WeatherHawk,2013-04-18 03:54:00,
2013-04-17 23:00:00,76.8,57.3,29.84,SSE,168,16.0,0.0,51,0.00,,,0.00,1,WeatherHawk,2013-04-18 04:00:00,
2013-04-17 23:01:00,76.9,57.3,29.83,SE,130,13.0,0.0,51,0.00,,,0.00,0,WeatherHawk,2013-04-18 04:01:00,
2013-04-17 23:02:00,76.8,57.3,29.84,South,172,10.0,0.0,51,0.00,,,0.00,0,WeatherHawk,2013-04-18 04:02:00,
2013-04-17 23:03:00,76.9,57.3,29.84,South,176,13.0,0.0,51,0.00,,,0.00,0,WeatherHawk,2013-04-18 04:03:00,
2013-04-17 23:08:00,76.8,57.3,29.83,SE,141,10.0,0.0,51,0.00,,,0.00,1,WeatherHawk,2013-04-18 04:08:00,
2013-04-17 23:14:00,76.8,57.3,29.82,South,172,11.0,0.0,51,0.00,,,0.00,0,WeatherHawk,2013-04-18 04:14:00,
2013-04-17 23:19:00,76.8,57.3,29.83,SW,226,9.0,0.0,51,0.00,,,0.00,0,WeatherHawk,2013-04-18 04:19:00,
2013-04-17 23:24:00,76.9,57.3,29.82,SSW,212,16.0,0.0,51,0.00,,,0.00,0,WeatherHawk,2013-04-18 04:24:00,
2013-04-17 23:29:00,76.7,57.2,29.83,South,180,15.0,0.0,51,0.00,,,0.00,0,WeatherHawk,2013-04-18 04:29:00,
2013-04-17 23:34:00,76.8,57.8,29.82,SE,142,16.0,0.0,52,0.00,,,0.00,0,WeatherHawk,2013-04-18 04:34:00,
2013-04-17 23:39:00,76.8,57.8,29.83,ESE,122,15.0,0.0,52,0.00,,,0.00,0,WeatherHawk,2013-04-18 04:39:00,
2013-04-17 23:44:00,76.8,57.8,29.82,SSW,192,16.0,0.0,52,0.00,,,0.00,0,WeatherHawk,2013-04-18 04:44:00,
2013-04-17 23:49:00,76.7,58.3,29.84,SSE,156,12.0,0.0,53,0.00,,,0.00,0,WeatherHawk,2013-04-18 04:49:00,
2013-04-17 23:54:00,76.7,58.2,29.84,SSE,148,12.0,0.0,53,0.00,,,0.00,0,WeatherHawk,2013-04-18 04:54:00,